createdAt,value
2022-09-06T00:00:39.910Z,2.70
2022-09-06T00:05:44.638Z,5.80
2022-09-06T00:10:47.647Z,7.50
2022-09-06T00:15:51.059Z,4.10
2022-09-06T00:20:54.563Z,3.90
2022-09-06T00:26:06.843Z,3.00
2022-09-06T00:31:18.981Z,3.80
2022-09-06T00:36:23.567Z,2.40
2022-09-06T00:41:26.701Z,2.50
2022-09-06T00:46:32.512Z,4.00
2022-09-06T00:51:37.461Z,2.70
2022-09-06T00:56:44.796Z,5.40
2022-09-06T01:01:48.578Z,1.80
2022-09-06T01:07:22.311Z,3.20
2022-09-06T01:13:06.317Z,4.00
2022-09-06T01:18:31.238Z,2.80
2022-09-06T01:24:29.291Z,2.30
2022-09-06T01:29:50.229Z,2.80
2022-09-06T01:35:26.111Z,2.70
2022-09-06T01:40:29.507Z,1.70
2022-09-06T01:45:43.837Z,2.50
2022-09-06T01:51:28.097Z,4.50
2022-09-06T01:56:50.072Z,4.20
2022-09-06T02:01:58.883Z,1.70
2022-09-06T02:12:17.142Z,2.20
2022-09-06T02:17:27.521Z,4.50
2022-09-06T02:22:38.182Z,2.60
2022-09-06T02:27:41.413Z,3.00
2022-09-06T02:32:57.867Z,3.70
2022-09-06T02:38:00.952Z,5.70
2022-09-06T02:43:04.005Z,2.90
2022-09-06T02:48:07.193Z,4.30
2022-09-06T02:53:14.181Z,5.70
2022-09-06T02:58:17.577Z,5.00
2022-09-06T03:03:21.879Z,6.50
2022-09-06T03:08:26.814Z,4.70
2022-09-06T03:13:30.570Z,3.20
2022-09-06T03:18:34.205Z,4.80
2022-09-06T03:23:39.840Z,5.90
2022-09-06T03:28:43.651Z,3.90
2022-09-06T03:33:48.395Z,6.10
2022-09-06T03:38:54.171Z,8.50
2022-09-06T03:43:57.373Z,7.40
2022-09-06T03:49:02.196Z,8.50
2022-09-06T03:54:05.534Z,7.60
2022-09-06T03:59:08.751Z,5.80
2022-09-06T04:04:12.048Z,5.00
2022-09-06T04:09:15.975Z,3.90
2022-09-06T04:14:19.218Z,4.30
2022-09-06T04:19:22.495Z,8.50
2022-09-06T04:24:25.705Z,4.10
2022-09-06T04:29:28.809Z,4.30
2022-09-06T04:34:32.129Z,5.00
2022-09-06T04:39:35.373Z,4.20
2022-09-06T04:44:38.568Z,5.20
2022-09-06T04:49:42.817Z,4.00
2022-09-06T04:54:46.112Z,3.10
2022-09-06T04:59:49.597Z,3.40
2022-09-06T05:04:53.752Z,3.10
2022-09-06T05:09:57.141Z,2.90
2022-09-06T05:15:00.265Z,2.90
2022-09-06T05:20:05.010Z,2.20
2022-09-06T05:25:10.223Z,2.60
2022-09-06T05:30:15.094Z,3.00
2022-09-06T05:35:18.304Z,3.70
2022-09-06T05:40:21.407Z,6.00
2022-09-06T05:45:24.770Z,5.90
2022-09-06T05:50:27.935Z,3.60
2022-09-06T05:55:31.041Z,3.00
2022-09-06T06:00:34.176Z,3.00
2022-09-06T06:05:37.350Z,3.00
2022-09-06T06:10:40.987Z,4.20
2022-09-06T06:15:44.174Z,3.70
2022-09-06T06:20:47.402Z,4.30
2022-09-06T06:25:50.593Z,4.00
2022-09-06T06:30:54.620Z,4.20
2022-09-06T06:36:07.132Z,2.40
2022-09-06T06:41:13.798Z,5.30
2022-09-06T06:46:19.259Z,5.50
2022-09-06T06:51:29.211Z,1.90
2022-09-06T06:56:39.225Z,2.70
2022-09-06T07:01:42.396Z,1.90
2022-09-06T07:17:17.585Z,1.10
2022-09-06T07:22:20.633Z,1.20
2022-09-06T07:32:46.655Z,1.10
2022-09-06T07:37:58.438Z,1.20
2022-09-06T07:43:01.443Z,1.40
2022-09-06T07:48:04.468Z,1.20
2022-09-06T07:53:13.095Z,2.10
2022-09-06T07:58:18.949Z,2.60
2022-09-06T08:03:22.068Z,2.30
2022-09-06T08:13:52.900Z,1.20
2022-09-06T08:19:02.677Z,6.00
2022-09-06T08:24:09.895Z,5.90
2022-09-06T08:29:14.452Z,2.80
2022-09-06T08:34:17.520Z,74.60
2022-09-06T08:39:20.518Z,53.40
2022-09-06T08:44:59.490Z,6.10
2022-09-06T08:50:07.790Z,1.70
2022-09-06T08:55:49.455Z,1.20
2022-09-06T09:01:02.370Z,0.80
2022-09-06T09:06:10.246Z,1.60
2022-09-06T09:11:23.403Z,0.90
2022-09-06T09:16:27.179Z,1.00
2022-09-06T09:21:36.686Z,1.30
2022-09-06T09:26:52.052Z,1.90
2022-09-06T09:31:56.732Z,2.80
2022-09-06T09:42:47.195Z,0.80
2022-09-06T09:47:50.253Z,0.50
2022-09-06T09:52:53.878Z,1.10
2022-09-06T09:57:57.088Z,0.70
2022-09-06T10:03:00.232Z,3.00
2022-09-06T10:08:03.338Z,0.50
2022-09-06T10:13:31.769Z,1.20
2022-09-06T10:18:37.963Z,1.00
2022-09-06T10:24:27.740Z,1.20
2022-09-06T10:29:54.427Z,0.50
2022-09-06T10:35:21.382Z,0.90
2022-09-06T10:41:06.131Z,0.60
2022-09-06T10:46:16.205Z,0.40
2022-09-06T10:51:21.476Z,1.00
2022-09-06T10:56:52.817Z,2.00
2022-09-06T11:01:55.850Z,0.90
2022-09-06T11:07:24.488Z,3.50
2022-09-06T11:12:37.735Z,0.90
2022-09-06T11:18:33.103Z,1.00
2022-09-06T11:24:26.903Z,0.80
2022-09-06T11:29:34.549Z,1.00
2022-09-06T11:34:38.255Z,0.90
2022-09-06T11:45:06.904Z,0.80
2022-09-06T11:50:26.975Z,0.80
2022-09-06T11:55:42.531Z,4.00
2022-09-06T12:01:07.010Z,2.10
2022-09-06T12:06:31.933Z,4.00
2022-09-06T12:11:43.173Z,3.40
2022-09-06T12:17:07.443Z,0.40
2022-09-06T12:22:36.139Z,1.50
2022-09-06T12:27:50.865Z,1.00
2022-09-06T12:32:54.099Z,0.60
2022-09-06T12:38:06.969Z,0.30
2022-09-06T12:43:14.675Z,0.70
2022-09-06T12:48:33.558Z,0.40
2022-09-06T12:53:37.066Z,1.30
2022-09-06T12:58:40.456Z,2.30
2022-09-06T13:04:05.257Z,1.60
2022-09-06T13:09:14.413Z,0.60
2022-09-06T13:14:28.141Z,2.00
2022-09-06T13:19:40.589Z,0.30
2022-09-06T13:24:49.876Z,0.50
2022-09-06T13:30:09.287Z,0.90
2022-09-06T13:35:24.703Z,1.60
2022-09-06T13:41:09.812Z,2.30
2022-09-06T13:46:11.027Z,3.60
2022-09-06T13:51:14.143Z,1.90
2022-09-06T13:56:17.347Z,1.90
2022-09-06T14:01:20.603Z,1.00
2022-09-06T14:06:24.050Z,0.50
2022-09-06T14:11:27.102Z,0.90
2022-09-06T14:16:30.403Z,0.60
2022-09-06T14:21:33.523Z,1.20
2022-09-06T14:26:37.595Z,0.90
2022-09-06T14:31:40.799Z,1.10
2022-09-06T14:36:43.883Z,2.70
2022-09-06T14:41:47.142Z,0.40
2022-09-06T14:46:53.546Z,1.90
2022-09-06T14:51:56.702Z,0.70
2022-09-06T14:57:00.148Z,2.40
2022-09-06T15:02:04.095Z,0.80
2022-09-06T15:07:08.887Z,3.60
2022-09-06T15:12:12.057Z,2.50
2022-09-06T15:17:15.199Z,1.20
2022-09-06T15:22:18.251Z,0.90
2022-09-06T15:27:21.820Z,3.70
2022-09-06T15:32:25.342Z,0.90
2022-09-06T15:37:28.443Z,1.60
2022-09-06T15:42:31.508Z,0.90
2022-09-06T15:47:35.611Z,1.10
2022-09-06T15:52:38.592Z,1.90
2022-09-06T15:57:41.596Z,1.70
2022-09-06T16:02:44.950Z,1.20
2022-09-06T16:07:48.102Z,0.90
2022-09-06T16:12:53.388Z,1.30
2022-09-06T16:17:57.922Z,0.90
2022-09-06T16:23:00.993Z,2.60
2022-09-06T16:28:04.036Z,2.80
2022-09-06T16:33:07.076Z,34.00
2022-09-06T16:38:10.370Z,6.20
2022-09-06T16:43:14.268Z,2.70
2022-09-06T16:48:17.254Z,1.70
2022-09-06T16:53:22.179Z,1.60
2022-09-06T16:58:25.634Z,1.80
2022-09-06T17:03:29.198Z,1.50
2022-09-06T17:08:34.159Z,0.90
2022-09-06T17:13:38.360Z,2.40
2022-09-06T17:18:41.942Z,1.70
2022-09-06T17:23:45.044Z,3.60
2022-09-06T17:28:50.335Z,1.90
2022-09-06T17:33:54.032Z,1.20
2022-09-06T17:39:08.085Z,2.50
2022-09-06T17:44:14.544Z,4.10
2022-09-06T17:49:18.940Z,2.80
2022-09-06T17:54:22.356Z,3.50
2022-09-06T17:59:25.679Z,2.50
2022-09-06T18:04:28.886Z,2.70
2022-09-06T18:09:32.088Z,3.80
2022-09-06T18:14:35.301Z,2.70
2022-09-06T18:19:38.499Z,7.50
2022-09-06T18:24:41.596Z,6.00
2022-09-06T18:29:44.655Z,5.30
2022-09-06T18:34:47.747Z,6.00
2022-09-06T18:39:51.239Z,7.90
2022-09-06T18:44:56.051Z,5.20
2022-09-06T18:49:59.099Z,2.70
2022-09-06T18:55:02.162Z,5.90
2022-09-06T19:00:07.608Z,7.30
2022-09-06T19:05:10.667Z,25.80
2022-09-06T19:10:13.831Z,7.90
2022-09-06T19:15:16.982Z,3.80
2022-09-06T19:20:21.872Z,4.70
2022-09-06T19:25:25.189Z,5.10
2022-09-06T19:30:28.204Z,5.70
2022-09-06T19:35:31.243Z,5.20
2022-09-06T19:40:34.306Z,35.10
2022-09-06T19:45:39.527Z,56.90
2022-09-06T19:50:42.703Z,59.80
2022-09-06T19:55:45.731Z,41.40
2022-09-06T20:00:48.861Z,72.30
2022-09-06T20:06:00.690Z,50.50
2022-09-06T20:11:07.818Z,36.80
2022-09-06T20:16:13.155Z,13.10
2022-09-06T20:21:21.185Z,7.90
2022-09-06T20:26:27.660Z,5.60
2022-09-06T20:31:33.074Z,8.50
2022-09-06T20:36:36.585Z,9.90
2022-09-06T20:41:39.732Z,19.60
2022-09-06T20:46:42.936Z,13.30
2022-09-06T20:51:46.009Z,19.50
2022-09-06T20:56:49.105Z,18.60
2022-09-06T21:01:53.666Z,14.10
2022-09-06T21:06:56.741Z,11.20
2022-09-06T21:12:00.219Z,4.50
2022-09-06T21:17:03.343Z,6.90
2022-09-06T21:22:06.657Z,9.10
2022-09-06T21:27:12.184Z,9.20
2022-09-06T21:32:15.295Z,29.10
2022-09-06T21:37:18.964Z,53.40
2022-09-06T21:42:22.127Z,36.20
2022-09-06T21:47:25.198Z,34.70
2022-09-06T21:52:32.571Z,19.30
2022-09-06T21:57:35.745Z,18.00
2022-09-06T22:02:39.228Z,14.00
2022-09-06T22:07:42.356Z,10.30
2022-09-06T22:12:45.478Z,8.80
2022-09-06T22:17:49.730Z,6.30
2022-09-06T22:22:52.760Z,6.60
2022-09-06T22:27:55.866Z,8.90
2022-09-06T22:32:58.930Z,7.10
2022-09-06T22:38:02.666Z,4.60
2022-09-06T22:43:05.760Z,5.00
2022-09-06T22:48:08.766Z,6.10
2022-09-06T22:53:12.484Z,3.90
2022-09-06T22:58:15.533Z,5.50
2022-09-06T23:03:18.653Z,5.30
2022-09-06T23:08:21.702Z,8.00
2022-09-06T23:13:24.732Z,4.80
2022-09-06T23:18:27.769Z,2.80
2022-09-06T23:23:31.353Z,3.10
2022-09-06T23:28:35.886Z,4.60
2022-09-06T23:33:40.611Z,7.30
2022-09-06T23:38:44.841Z,9.00
2022-09-06T23:43:47.948Z,6.70
2022-09-06T23:48:50.962Z,4.70
2022-09-06T23:53:53.996Z,8.80
2022-09-06T23:58:57.031Z,5.20
